Natures Way Challenger — WDF7294 — position and weather

sailwx.info

Track history (hours):
 
Tides and Currents Weather Stations Pressure Air Temp Water Temp Dewpoint Dewpoint Depression Visibility Wind Speed Wind Dir Waves Ship Positions

Natures Way Challenger

Owner: Natures Way Marine, LLC, Theodore, AL. More information available from US FCC via Universal Licensing System and Coast Guard Vessel Documentation Center.

Last reported at 2016-Feb-05 01:12 UTC. Time now 2016-Feb-06 15:32 UTC.
Position N 29°58' W 092°51'.

Length 14 m.

Type: Towing. MMSI: 367483050.

Date/timePositionNaut miles runAvg speedWind from/ knotsBaromVisibWave heightAir tempDewpointWater temp
2016-Feb-05 01:12N 29°58' W 092°51'3 4.5
2016-Feb-05 00:32N 29°57' W 092°54'4 4.1
2016-Feb-04 23:33N 29°56' W 092°59'5 4.7
2016-Feb-04 22:33N 29°56' W 093°04'5 4.8
2016-Feb-04 21:33N 29°56' W 093°10'5 5.1
2016-Feb-04 20:33N 29°60' W 093°13'4 4.3
2016-Feb-04 19:33N 30°04' W 093°16'3 3.2
2016-Feb-04 18:33N 30°06' W 093°18'1 1.0
2016-Feb-04 17:33N 30°06' W 093°19'3 3.1
2016-Feb-04 16:33N 30°04' W 093°22'1 0.5
2016-Feb-04 15:33N 30°04' W 093°22'1 0.7
2016-Feb-04 14:33N 30°04' W 093°22'4 4.5
2016-Feb-04 13:33N 30°04' W 093°27'4 4.4
2016-Feb-04 12:34N 30°04' W 093°33'4 4.1
2016-Feb-04 11:33N 30°04' W 093°37'3 3.0
2016-Feb-04 10:33N 30°04' W 093°41'6 2.9
2016-Feb-04 08:22N 29°60' W 093°47'65 2.7
2016-Feb-03 08:13N 29°32' W 094°54'3 3.9
2016-Feb-03 07:33N 29°34' W 094°56'4 3.9
2016-Feb-03 06:33N 29°38' W 094°58'4 4.2
2016-Feb-03 05:33N 29°42' W 094°60'6 1.4
2016-Feb-03 01:09N 29°46' W 095°05'2 0.8
2016-Feb-02 22:28N 29°44' W 095°07'  
2016-Jan-30 09:33N 29°46' W 095°04'6 5.9
2016-Jan-30 08:33N 29°42' W 094°59'7 6.8
2016-Jan-30 07:33N 29°35' W 094°56'7 6.7
2016-Jan-30 06:33N 29°30' W 094°52'12 3.9
2016-Jan-30 03:33N 29°28' W 094°39'14 4.6
2016-Jan-30 00:33N 29°35' W 094°25'11 5.2
2016-Jan-29 22:30N 29°40' W 094°14'25 4.2
2016-Jan-29 16:29N 29°56' W 093°52'0 0.0
2016-Jan-29 15:33N 29°56' W 093°52'0 0.0
2016-Jan-29 14:33N 29°56' W 093°52'0 0.0
2016-Jan-29 13:33N 29°56' W 093°52'0 0.0
2016-Jan-29 12:33N 29°56' W 093°52'2 1.8
2016-Jan-29 11:33N 29°58' W 093°51'4 4.5
2016-Jan-29 10:33N 29°60' W 093°47'5 4.6
2016-Jan-29 09:33N 30°03' W 093°43'3 3.5
2016-Jan-29 08:33N 30°04' W 093°39'3 3.1
2016-Jan-29 07:33N 30°04' W 093°36'3 2.7
2016-Jan-29 06:33N 30°04' W 093°32'3 3.0
2016-Jan-29 05:33N 30°04' W 093°29'3 3.1
2016-Jan-29 04:33N 30°04' W 093°25'3 2.8
2016-Jan-29 03:33N 30°04' W 093°22'3 3.1
2016-Jan-29 02:33N 30°06' W 093°19'2 1.8
2016-Jan-29 01:33N 30°05' W 093°17'2 2.0
2016-Jan-29 00:33N 30°04' W 093°16'3 3.1
2016-Jan-28 23:33N 30°01' W 093°14'3 3.3
2016-Jan-28 22:33N 29°58' W 093°12'3 3.3
2016-Jan-28 21:33N 29°56' W 093°09'3 3.2
2016-Jan-28 20:31N 29°56' W 093°05'3 3.3
2016-Jan-28 19:30N 29°56' W 093°01'116 2.6
2016-Jan-26 22:33N 29°32' W 090°50'3 2.9
2016-Jan-26 21:33N 29°32' W 090°47'2 2.3
2016-Jan-26 20:33N 29°34' W 090°45'2 2.0
2016-Jan-26 19:33N 29°35' W 090°43'2 2.1
2016-Jan-26 18:33N 29°37' W 090°42'1 0.9
2016-Jan-26 17:33N 29°37' W 090°41'2 2.5
2016-Jan-26 16:33N 29°35' W 090°39'3 2.8
2016-Jan-26 15:33N 29°35' W 090°36'  
Track history (hours):
 
Tides and Currents Weather Stations Pressure Air Temp Water Temp Dewpoint Dewpoint Depression Visibility Wind Speed Wind Dir Waves Ship Positions

Natures Way Challenger

Owner: Natures Way Marine, LLC, Theodore, AL. More information available from US FCC via Universal Licensing System and Coast Guard Vessel Documentation Center.

Last reported at 2016-Feb-05 01:12 UTC. Time now 2016-Feb-06 15:32 UTC.
Position N 29°58' W 092°51'.

Length 14 m.

Type: Towing. MMSI: 367483050.

Date/timePositionNaut miles runAvg speedWind from/ knotsBaromVisibWave heightAir tempDewpointWater temp
2016-Feb-05 01:12N 29°58' W 092°51'3 4.5
2016-Feb-05 00:32N 29°57' W 092°54'4 4.1
2016-Feb-04 23:33N 29°56' W 092°59'5 4.7
2016-Feb-04 22:33N 29°56' W 093°04'5 4.8
2016-Feb-04 21:33N 29°56' W 093°10'5 5.1
2016-Feb-04 20:33N 29°60' W 093°13'4 4.3
2016-Feb-04 19:33N 30°04' W 093°16'3 3.2
2016-Feb-04 18:33N 30°06' W 093°18'1 1.0
2016-Feb-04 17:33N 30°06' W 093°19'3 3.1
2016-Feb-04 16:33N 30°04' W 093°22'1 0.5
2016-Feb-04 15:33N 30°04' W 093°22'1 0.7
2016-Feb-04 14:33N 30°04' W 093°22'4 4.5
2016-Feb-04 13:33N 30°04' W 093°27'4 4.4
2016-Feb-04 12:34N 30°04' W 093°33'4 4.1
2016-Feb-04 11:33N 30°04' W 093°37'3 3.0
2016-Feb-04 10:33N 30°04' W 093°41'6 2.9
2016-Feb-04 08:22N 29°60' W 093°47'65 2.7
2016-Feb-03 08:13N 29°32' W 094°54'3 3.9
2016-Feb-03 07:33N 29°34' W 094°56'4 3.9
2016-Feb-03 06:33N 29°38' W 094°58'4 4.2
2016-Feb-03 05:33N 29°42' W 094°60'6 1.4
2016-Feb-03 01:09N 29°46' W 095°05'2 0.8
2016-Feb-02 22:28N 29°44' W 095°07'  
2016-Jan-30 09:33N 29°46' W 095°04'6 5.9
2016-Jan-30 08:33N 29°42' W 094°59'7 6.8
2016-Jan-30 07:33N 29°35' W 094°56'7 6.7
2016-Jan-30 06:33N 29°30' W 094°52'12 3.9
2016-Jan-30 03:33N 29°28' W 094°39'14 4.6
2016-Jan-30 00:33N 29°35' W 094°25'11 5.2
2016-Jan-29 22:30N 29°40' W 094°14'25 4.2
2016-Jan-29 16:29N 29°56' W 093°52'0 0.0
2016-Jan-29 15:33N 29°56' W 093°52'0 0.0
2016-Jan-29 14:33N 29°56' W 093°52'0 0.0
2016-Jan-29 13:33N 29°56' W 093°52'0 0.0
2016-Jan-29 12:33N 29°56' W 093°52'2 1.8
2016-Jan-29 11:33N 29°58' W 093°51'4 4.5
2016-Jan-29 10:33N 29°60' W 093°47'5 4.6
2016-Jan-29 09:33N 30°03' W 093°43'3 3.5
2016-Jan-29 08:33N 30°04' W 093°39'3 3.1
2016-Jan-29 07:33N 30°04' W 093°36'3 2.7
2016-Jan-29 06:33N 30°04' W 093°32'3 3.0
2016-Jan-29 05:33N 30°04' W 093°29'3 3.1
2016-Jan-29 04:33N 30°04' W 093°25'3 2.8
2016-Jan-29 03:33N 30°04' W 093°22'3 3.1
2016-Jan-29 02:33N 30°06' W 093°19'2 1.8
2016-Jan-29 01:33N 30°05' W 093°17'2 2.0
2016-Jan-29 00:33N 30°04' W 093°16'3 3.1
2016-Jan-28 23:33N 30°01' W 093°14'3 3.3
2016-Jan-28 22:33N 29°58' W 093°12'3 3.3
2016-Jan-28 21:33N 29°56' W 093°09'3 3.2
2016-Jan-28 20:31N 29°56' W 093°05'3 3.3
2016-Jan-28 19:30N 29°56' W 093°01'116 2.6
2016-Jan-26 22:33N 29°32' W 090°50'3 2.9
2016-Jan-26 21:33N 29°32' W 090°47'2 2.3
2016-Jan-26 20:33N 29°34' W 090°45'2 2.0
2016-Jan-26 19:33N 29°35' W 090°43'2 2.1
2016-Jan-26 18:33N 29°37' W 090°42'1 0.9
2016-Jan-26 17:33N 29°37' W 090°41'2 2.5
2016-Jan-26 16:33N 29°35' W 090°39'3 2.8
2016-Jan-26 15:33N 29°35' W 090°36'  

Dump ship's entire track history